Time;durP1;ratioP1;P1;durP2;ratioP2;P2;SDS_P1;SDS_P2;PMS_P1;PMS_P2;Temp;Humidity;BMP_temperature;BMP_pressure;BME280_temperature;BME280_humidity;BME280_pressure;Samples;Min_cycle;Max_cycle;Signal;HPM_P1;HPM_P2
2022/08/31 00:05:18;;;;;;;12.93;9.23;;;23.40;99.90;;;;;;5095247;28;20513;-93
2022/08/31 00:07:44;;;;;;;11.43;7.97;;;23.40;99.90;;;;;;5077143;28;20521;-92
2022/08/31 00:10:14;;;;;;;10.10;7.77;;;23.40;99.90;;;;;;5076772;28;20749;-94
2022/08/31 00:12:41;;;;;;;12.47;8.33;;;23.40;99.90;;;;;;5076963;28;20216;-92
2022/08/31 00:15:09;;;;;;;9.47;7.50;;;23.40;99.90;;;;;;5076480;28;20429;-93
2022/08/31 00:17:34;;;;;;;9.90;7.67;;;23.40;99.90;;;;;;5076516;28;20509;-93
2022/08/31 00:20:00;;;;;;;9.90;7.70;;;23.40;99.90;;;;;;5094889;28;20509;-93
2022/08/31 00:22:25;;;;;;;12.73;9.40;;;23.30;99.90;;;;;;5102290;28;20179;-93
2022/08/31 00:24:51;;;;;;;13.07;8.00;;;23.30;99.90;;;;;;5077654;28;20197;-93
2022/08/31 00:27:17;;;;;;;10.57;8.37;;;23.30;99.90;;;;;;5076914;28;20241;-93
2022/08/31 00:29:42;;;;;;;10.27;7.00;;;23.30;99.90;;;;;;5076727;28;20202;-92
2022/08/31 00:32:08;;;;;;;11.67;7.80;;;23.30;99.90;;;;;;5080784;28;20186;-93
2022/08/31 00:34:33;;;;;;;10.50;8.40;;;23.30;99.90;;;;;;5080839;28;20188;-92
2022/08/31 00:37:00;;;;;;;6.53;5.77;;;23.30;99.90;;;;;;5080518;28;20178;-93
2022/08/31 00:39:26;;;;;;;9.03;7.33;;;23.20;99.90;;;;;;5080078;28;20253;-93
2022/08/31 00:41:52;;;;;;;7.83;6.73;;;23.20;99.90;;;;;;5080403;28;20532;-92
2022/08/31 00:44:17;;;;;;;9.33;6.87;;;23.20;99.90;;;;;;5099199;28;20647;-93
2022/08/31 00:46:43;;;;;;;7.73;6.20;;;23.20;99.90;;;;;;5081841;28;20186;-91
2022/08/31 00:49:30;;;;;;;10.33;7.03;;;23.20;99.90;;;;;;5081004;28;20200;-93
2022/08/31 00:52:00;;;;;;;10.33;6.80;;;23.20;99.90;;;;;;5080801;28;20425;-94
2022/08/31 00:54:43;;;;;;;10.43;6.80;;;23.10;99.90;;;;;;5099018;28;21025;-92
2022/08/31 00:57:09;;;;;;;7.37;5.80;;;23.10;99.90;;;;;;5080770;28;20425;-93
2022/08/31 00:59:36;;;;;;;9.00;6.63;;;23.10;99.90;;;;;;5080361;28;20500;-93
2022/08/31 01:02:03;;;;;;;7.67;6.10;;;23.00;99.90;;;;;;5099314;28;20548;-93
2022/08/31 01:04:29;;;;;;;10.20;6.30;;;23.00;99.90;;;;;;5081712;28;20429;-92
2022/08/31 01:06:56;;;;;;;7.47;6.03;;;23.00;99.90;;;;;;5080889;28;20436;-93
2022/08/31 01:09:23;;;;;;;8.40;6.70;;;23.00;99.90;;;;;;5099410;28;20514;-91
2022/08/31 01:11:49;;;;;;;7.90;6.47;;;22.90;99.90;;;;;;5081529;28;20448;-93
2022/08/31 01:14:15;;;;;;;9.87;6.60;;;22.90;99.90;;;;;;5080996;28;20426;-92
2022/08/31 01:16:48;;;;;;;7.20;5.63;;;22.90;99.90;;;;;;5081252;28;20570;-93
2022/08/31 01:19:35;;;;;;;6.80;5.97;;;22.90;99.90;;;;;;5109310;28;20452;-92
2022/08/31 01:22:29;;;;;;;8.47;6.23;;;22.90;99.90;;;;;;5106682;28;20429;-94
2022/08/31 01:24:56;;;;;;;5.53;5.03;;;22.80;99.90;;;;;;5083695;28;20502;-92
2022/08/31 01:27:26;;;;;;;8.40;5.70;;;22.80;99.90;;;;;;5080425;28;20934;-93
2022/08/31 01:29:52;;;;;;;9.60;5.90;;;22.80;99.90;;;;;;5080454;28;20429;-93
2022/08/31 01:32:18;;;;;;;10.07;5.83;;;22.80;99.90;;;;;;5081763;28;20519;-92
2022/08/31 01:34:43;;;;;;;5.57;5.07;;;22.80;99.90;;;;;;5081189;28;20456;-94
2022/08/31 01:37:10;;;;;;;8.57;6.10;;;22.70;99.90;;;;;;5080061;28;20194;-92
2022/08/31 01:39:36;;;;;;;5.90;5.10;;;22.70;99.90;;;;;;5079578;28;20223;-92
2022/08/31 01:42:01;;;;;;;7.40;6.10;;;22.70;99.90;;;;;;5079699;28;20515;-93
2022/08/31 01:44:27;;;;;;;5.90;4.90;;;22.70;99.90;;;;;;5080601;28;20550;-93
2022/08/31 01:46:54;;;;;;;8.47;5.20;;;22.70;99.90;;;;;;5080740;28;20215;-93
2022/08/31 01:49:21;;;;;;;4.83;4.33;;;22.70;99.90;;;;;;5080508;28;20433;-92
2022/08/31 01:51:48;;;;;;;5.23;4.50;;;22.60;99.90;;;;;;5079758;28;20437;-93
2022/08/31 01:54:14;;;;;;;4.43;4.03;;;22.60;99.90;;;;;;5079780;28;20437;-92
2022/08/31 01:56:43;;;;;;;6.80;5.10;;;22.50;99.90;;;;;;5098084;28;20417;-92
2022/08/31 01:59:12;;;;;;;5.93;4.47;;;22.50;99.90;;;;;;5097458;28;20460;-92
2022/08/31 02:01:41;;;;;;;5.60;4.30;;;22.50;99.90;;;;;;5097179;28;20528;-94
2022/08/31 02:04:08;;;;;;;5.00;4.20;;;22.50;99.90;;;;;;5078990;28;20767;-92
2022/08/31 02:06:35;;;;;;;7.90;4.70;;;22.50;99.90;;;;;;5103786;28;20417;-91
2022/08/31 02:09:02;;;;;;;6.00;4.50;;;22.50;99.90;;;;;;5101682;28;20902;-94
2022/08/31 02:11:28;;;;;;;8.50;4.80;;;22.40;99.90;;;;;;5080903;28;20444;-93
2022/08/31 02:13:54;;;;;;;10.77;4.63;;;22.40;99.90;;;;;;5081012;28;20402;-92
2022/08/31 02:16:19;;;;;;;4.70;4.20;;;22.40;99.90;;;;;;5080860;28;20193;-93
2022/08/31 02:18:45;;;;;;;7.67;4.83;;;22.40;99.90;;;;;;5080819;28;20204;-92
2022/08/31 02:21:12;;;;;;;6.53;4.23;;;22.40;99.90;;;;;;5098147;28;20197;-93
2022/08/31 02:23:38;;;;;;;8.87;4.37;;;22.40;99.90;;;;;;5080071;28;20267;-93
2022/08/31 02:26:04;;;;;;;4.30;3.60;;;22.40;99.90;;;;;;5079596;28;20536;-92
2022/08/31 02:28:30;;;;;;;8.80;4.57;;;22.40;99.90;;;;;;5079070;28;20444;-90
2022/08/31 02:30:56;;;;;;;5.80;4.63;;;22.40;99.90;;;;;;5085073;28;20441;-92
2022/08/31 02:33:23;;;;;;;5.60;4.33;;;22.30;99.90;;;;;;5097818;28;20540;-92
2022/08/31 02:35:49;;;;;;;4.80;3.87;;;22.30;99.90;;;;;;5078007;28;20685;-93
2022/08/31 02:38:15;;;;;;;5.30;4.17;;;22.30;99.90;;;;;;5077865;28;20460;-93
2022/08/31 02:40:41;;;;;;;8.10;4.47;;;22.30;99.90;;;;;;5095739;28;20467;-91
2022/08/31 02:43:11;;;;;;;4.13;3.73;;;22.20;99.90;;;;;;5077930;28;20219;-92
2022/08/31 02:45:37;;;;;;;4.90;4.20;;;22.20;99.90;;;;;;5077682;28;20573;-94
2022/08/31 02:48:05;;;;;;;6.00;4.30;;;22.20;99.90;;;;;;5078159;28;20433;-92
2022/08/31 02:50:31;;;;;;;5.17;4.00;;;22.20;99.90;;;;;;5077509;28;20464;-92
2022/08/31 02:52:57;;;;;;;4.57;4.17;;;22.20;99.90;;;;;;5077951;28;20791;-92
2022/08/31 02:55:23;;;;;;;4.90;4.20;;;22.10;99.90;;;;;;5077648;28;20192;-92
2022/08/31 02:57:50;;;;;;;5.10;4.43;;;22.10;99.90;;;;;;5077661;28;20212;-92
2022/08/31 03:00:17;;;;;;;5.13;4.10;;;22.10;99.90;;;;;;5077661;28;20432;-94
2022/08/31 03:02:42;;;;;;;5.17;4.40;;;22.00;99.90;;;;;;5101920;28;20421;-92
2022/08/31 03:05:09;;;;;;;5.53;4.63;;;22.00;99.90;;;;;;5078471;28;20524;-93
2022/08/31 03:07:36;;;;;;;7.60;4.33;;;22.00;99.90;;;;;;5078191;28;20241;-93
2022/08/31 03:10:03;;;;;;;4.23;3.83;;;22.00;99.90;;;;;;5082706;28;20433;-93
2022/08/31 03:12:29;;;;;;;5.60;4.60;;;22.00;99.90;;;;;;5080760;28;20502;-93
2022/08/31 03:14:55;;;;;;;4.90;4.17;;;22.00;99.90;;;;;;5079701;28;20961;-93
2022/08/31 03:17:20;;;;;;;4.70;4.07;;;22.00;99.90;;;;;;5078500;28;20180;-93
2022/08/31 03:19:46;;;;;;;6.80;4.43;;;22.00;99.90;;;;;;5077487;28;20311;-93
2022/08/31 03:22:13;;;;;;;4.33;3.93;;;22.00;99.90;;;;;;5077694;28;20183;-93
2022/08/31 03:24:39;;;;;;;5.07;4.00;;;22.00;99.90;;;;;;5078119;28;20330;-93
2022/08/31 03:27:05;;;;;;;5.30;4.37;;;22.00;99.90;;;;;;5077940;28;20976;-93
2022/08/31 03:29:31;;;;;;;7.27;4.57;;;22.00;99.90;;;;;;5077890;28;20429;-92
2022/08/31 03:31:57;;;;;;;8.33;4.50;;;22.00;99.90;;;;;;5078469;28;20184;-93
2022/08/31 03:34:22;;;;;;;6.03;4.90;;;22.00;99.90;;;;;;5096431;28;20428;-92
2022/08/31 03:36:48;;;;;;;7.90;4.53;;;22.00;99.90;;;;;;5078974;28;20187;-93
2022/08/31 03:39:14;;;;;;;5.33;4.53;;;22.00;99.90;;;;;;5078933;28;20216;-93
2022/08/31 03:41:39;;;;;;;6.50;4.43;;;22.00;99.90;;;;;;5096884;28;20204;-92
2022/08/31 03:44:05;;;;;;;8.13;4.60;;;22.00;99.90;;;;;;5077554;28;20271;-92
2022/08/31 03:46:32;;;;;;;6.43;4.33;;;21.90;99.90;;;;;;5096576;28;20576;-92
2022/08/31 03:49:00;;;;;;;5.33;4.63;;;21.90;99.90;;;;;;5085656;28;20196;-93
2022/08/31 03:51:26;;;;;;;5.37;4.87;;;21.90;99.90;;;;;;5094847;28;20528;-93
2022/08/31 03:53:52;;;;;;;4.37;3.97;;;21.90;99.90;;;;;;5098336;28;20405;-93
2022/08/31 03:56:18;;;;;;;6.40;4.30;;;21.90;99.90;;;;;;5078161;28;20424;-92
2022/08/31 03:58:43;;;;;;;6.60;4.53;;;21.90;99.90;;;;;;5095856;28;20552;-92
2022/08/31 04:01:12;;;;;;;5.47;4.30;;;21.90;99.90;;;;;;5077137;28;20853;-94
2022/08/31 04:03:38;;;;;;;8.30;4.60;;;21.80;99.90;;;;;;5076252;28;20186;-93
2022/08/31 04:06:11;;;;;;;6.37;4.33;;;21.80;99.90;;;;;;5096897;28;20447;-93
2022/08/31 04:08:38;;;;;;;5.23;4.73;;;21.80;99.90;;;;;;5091417;28;20593;-92
2022/08/31 04:11:10;;;;;;;5.43;4.40;;;21.80;99.90;;;;;;5081558;28;21075;-93
2022/08/31 04:13:37;;;;;;;6.27;4.73;;;21.80;99.90;;;;;;5077398;28;20425;-93
2022/08/31 04:16:02;;;;;;;6.90;4.40;;;21.70;99.90;;;;;;5085570;28;20452;-92
2022/08/31 04:18:28;;;;;;;6.30;4.63;;;21.80;99.90;;;;;;5095047;28;20517;-93
2022/08/31 04:20:54;;;;;;;7.00;4.77;;;21.70;99.90;;;;;;5091010;28;20295;-93
2022/08/31 04:23:19;;;;;;;6.80;5.37;;;21.70;99.90;;;;;;5086001;28;20237;-92
2022/08/31 04:25:45;;;;;;;5.60;4.90;;;21.70;99.90;;;;;;5079613;28;20297;-92
2022/08/31 04:28:11;;;;;;;6.50;4.37;;;21.70;99.90;;;;;;5088513;28;20193;-92
2022/08/31 04:30:42;;;;;;;7.47;5.17;;;21.70;99.90;;;;;;5087648;28;20211;-92
2022/08/31 04:33:07;;;;;;;4.87;4.37;;;21.70;99.90;;;;;;5081050;28;20491;-93
2022/08/31 04:35:34;;;;;;;5.60;4.30;;;21.70;99.90;;;;;;5100305;28;20451;-92
2022/08/31 04:37:59;;;;;;;6.10;4.50;;;21.70;99.90;;;;;;5102584;28;20591;-92
2022/08/31 04:40:25;;;;;;;6.03;5.23;;;21.70;99.90;;;;;;5105343;28;20459;-92
2022/08/31 04:42:51;;;;;;;6.20;4.87;;;21.70;99.90;;;;;;5100676;28;20652;-93
2022/08/31 04:45:17;;;;;;;6.00;4.80;;;21.70;99.90;;;;;;5092474;28;20208;-93
2022/08/31 04:47:43;;;;;;;7.73;4.70;;;21.80;99.90;;;;;;5080318;28;20180;-93
2022/08/31 04:50:10;;;;;;;7.50;5.80;;;21.70;99.90;;;;;;5077969;28;20284;-93
2022/08/31 04:52:36;;;;;;;5.57;5.07;;;21.70;99.90;;;;;;5082494;28;20456;-92
2022/08/31 04:55:02;;;;;;;5.23;4.70;;;21.80;99.90;;;;;;5097732;28;20427;-93
2022/08/31 04:57:30;;;;;;;5.13;4.73;;;21.80;99.90;;;;;;5076841;28;20430;-93
2022/08/31 04:59:56;;;;;;;5.30;4.80;;;21.80;99.90;;;;;;5058406;28;20457;-92
2022/08/31 05:02:21;;;;;;;7.33;4.93;;;21.80;99.90;;;;;;5061296;28;20436;-93
2022/08/31 05:04:47;;;;;;;11.50;5.20;;;21.80;99.90;;;;;;5075980;28;20437;-93
2022/08/31 05:07:13;;;;;;;6.17;5.27;;;21.90;99.90;;;;;;5068446;28;20185;-93
2022/08/31 05:09:38;;;;;;;7.13;4.70;;;21.90;99.90;;;;;;5065880;28;20200;-92
2022/08/31 05:12:04;;;;;;;7.10;4.77;;;21.90;99.90;;;;;;5096222;28;20181;-94
2022/08/31 05:14:30;;;;;;;12.60;4.97;;;22.00;99.90;;;;;;5075500;28;20197;-93
2022/08/31 05:16:55;;;;;;;12.60;8.90;;;22.00;99.90;;;;;;5058492;28;20437;-92
2022/08/31 05:19:21;;;;;;;367.70;185.33;;;22.00;99.90;;;;;;5078986;28;20216;-93
2022/08/31 05:21:47;;;;;;;20.03;11.60;;;22.10;99.90;;;;;;5083434;28;20309;-94
2022/08/31 05:24:19;;;;;;;12.90;8.70;;;22.10;99.90;;;;;;5083443;28;20543;-92
2022/08/31 05:26:47;;;;;;;6.60;5.63;;;22.10;99.90;;;;;;5082318;28;20180;-93
2022/08/31 05:29:15;;;;;;;6.93;5.93;;;22.20;99.90;;;;;;5083474;28;20437;-91
2022/08/31 05:31:42;;;;;;;6.23;5.33;;;22.20;99.90;;;;;;5082143;28;20489;-94
2022/08/31 05:34:11;;;;;;;6.70;5.57;;;22.20;99.90;;;;;;5096806;28;20436;-92
2022/08/31 05:36:38;;;;;;;8.20;5.20;;;22.20;99.90;;;;;;5081036;28;20489;-92
2022/08/31 05:39:03;;;;;;;5.87;5.27;;;22.20;99.90;;;;;;5076900;28;20589;-93
2022/08/31 05:41:30;;;;;;;11.77;5.40;;;22.20;99.90;;;;;;5094996;28;20439;-92
2022/08/31 05:43:55;;;;;;;6.90;5.90;;;22.30;99.90;;;;;;5082254;28;20181;-92
2022/08/31 05:46:21;;;;;;;6.00;5.40;;;22.30;99.90;;;;;;5067009;28;20516;-94
2022/08/31 05:48:46;;;;;;;6.30;5.63;;;22.30;99.90;;;;;;5061146;28;20724;-93
2022/08/31 05:51:14;;;;;;;10.93;5.20;;;22.30;99.90;;;;;;5073236;28;20239;-93
2022/08/31 05:53:40;;;;;;;5.00;4.60;;;22.30;99.90;;;;;;5075768;28;20176;-93
2022/08/31 05:56:09;;;;;;;5.30;4.73;;;22.40;99.90;;;;;;5075871;28;20456;-92
2022/08/31 05:58:37;;;;;;;9.90;5.63;;;22.40;99.90;;;;;;5083338;28;20496;-92
2022/08/31 06:01:04;;;;;;;5.40;4.83;;;22.40;99.90;;;;;;5080910;28;22643;-93
2022/08/31 06:03:30;;;;;;;5.63;4.77;;;22.40;99.90;;;;;;5103356;28;20420;-93
2022/08/31 06:05:55;;;;;;;8.37;4.60;;;22.50;99.90;;;;;;5069298;28;20459;-92
2022/08/31 06:08:21;;;;;;;5.37;4.77;;;22.50;99.90;;;;;;5081565;28;20440;-93
2022/08/31 06:10:47;;;;;;;7.37;5.50;;;22.60;99.90;;;;;;5087368;28;20566;-92
2022/08/31 06:13:14;;;;;;;7.37;4.67;;;22.60;99.90;;;;;;5082932;28;20183;-93
2022/08/31 06:15:40;;;;;;;6.27;5.60;;;22.60;99.90;;;;;;5100019;28;20449;-92
2022/08/31 06:18:06;;;;;;;9.10;6.00;;;22.70;99.90;;;;;;5078990;28;20469;-92
2022/08/31 06:20:36;;;;;;;8.60;4.77;;;22.70;99.90;;;;;;5077054;28;20459;-93
2022/08/31 06:23:04;;;;;;;8.80;4.97;;;22.80;99.90;;;;;;5078744;28;20479;-93
2022/08/31 06:25:31;;;;;;;6.17;5.10;;;22.80;99.90;;;;;;5091883;28;20475;-92
2022/08/31 06:27:58;;;;;;;4.90;4.40;;;22.90;99.90;;;;;;5097103;28;20480;-92
2022/08/31 06:30:26;;;;;;;9.03;4.90;;;23.00;99.90;;;;;;5077900;28;20494;-93
2022/08/31 06:32:54;;;;;;;5.53;5.03;;;23.10;99.90;;;;;;5076776;28;20439;-93
2022/08/31 06:35:20;;;;;;;4.70;4.30;;;23.20;99.90;;;;;;5083884;28;20517;-93
2022/08/31 06:37:46;;;;;;;7.07;5.00;;;23.20;99.90;;;;;;5082051;28;20447;-92
2022/08/31 06:40:11;;;;;;;5.10;4.60;;;23.30;99.90;;;;;;5093026;28;20446;-93
2022/08/31 06:42:37;;;;;;;6.10;4.80;;;23.40;99.90;;;;;;5074704;28;20728;-94
2022/08/31 06:45:06;;;;;;;7.47;4.63;;;23.40;99.90;;;;;;5075555;28;20205;-93
2022/08/31 06:47:33;;;;;;;6.93;4.30;;;23.50;99.90;;;;;;5071179;28;20186;-93
2022/08/31 06:49:58;;;;;;;4.63;4.13;;;23.50;99.90;;;;;;5071360;28;20473;-93
2022/08/31 06:52:25;;;;;;;4.97;4.47;;;23.50;99.90;;;;;;5074692;28;20422;-93
2022/08/31 06:54:50;;;;;;;7.50;4.20;;;23.50;99.90;;;;;;5076185;28;21169;-94
2022/08/31 06:57:16;;;;;;;5.10;4.47;;;23.60;99.90;;;;;;5101469;28;20419;-94
2022/08/31 06:59:43;;;;;;;5.53;4.63;;;23.60;99.90;;;;;;5076726;28;20233;-93
2022/08/31 07:02:08;;;;;;;5.87;4.50;;;23.60;99.90;;;;;;5079963;28;20441;-93
2022/08/31 07:04:37;;;;;;;8.23;4.27;;;23.60;99.90;;;;;;5078739;28;20795;-92
2022/08/31 07:07:05;;;;;;;4.90;4.40;;;23.60;99.90;;;;;;5069008;28;20205;-92
2022/08/31 07:09:31;;;;;;;11.63;4.50;;;23.60;99.90;;;;;;5087286;28;20437;-93
2022/08/31 07:11:56;;;;;;;5.80;4.80;;;23.70;99.90;;;;;;5080170;28;20450;-92
2022/08/31 07:14:25;;;;;;;4.53;3.97;;;23.70;99.90;;;;;;5072531;28;20453;-93
2022/08/31 07:16:53;;;;;;;5.00;4.50;;;23.70;99.90;;;;;;5106527;28;20185;-92
2022/08/31 07:19:20;;;;;;;7.17;4.40;;;23.80;99.90;;;;;;5078566;28;20483;-93
2022/08/31 07:21:49;;;;;;;4.27;3.87;;;23.80;99.90;;;;;;5085225;28;20421;-93
2022/08/31 07:24:20;;;;;;;4.67;4.27;;;23.90;99.90;;;;;;5081664;28;20468;-93
2022/08/31 07:26:48;;;;;;;9.43;4.80;;;24.00;99.90;;;;;;5082175;28;20476;-93
2022/08/31 07:29:17;;;;;;;4.27;3.40;;;24.00;99.90;;;;;;5083829;28;20469;-92
2022/08/31 07:31:45;;;;;;;9.20;5.00;;;24.10;99.90;;;;;;5085181;28;20820;-92
2022/08/31 07:34:13;;;;;;;5.70;4.53;;;24.20;99.90;;;;;;5073229;28;20444;-93
2022/08/31 07:42:13;;;;;;;4.87;4.27;;;24.50;99.90;;;;;;5099072;28;20472;-93
2022/08/31 07:44:42;;;;;;;4.87;3.60;;;24.60;99.90;;;;;;5081609;28;20774;-93
2022/08/31 07:47:11;;;;;;;6.40;4.23;;;24.70;99.90;;;;;;5080624;28;20868;-93
2022/08/31 07:49:47;;;;;;;6.13;4.33;;;24.90;99.90;;;;;;5098866;28;20893;-93
2022/08/31 07:52:22;;;;;;;4.53;4.13;;;25.00;99.90;;;;;;5085911;28;20470;-94
2022/08/31 07:54:49;;;;;;;4.37;3.97;;;25.10;99.90;;;;;;5088953;28;20506;-94
2022/08/31 07:57:17;;;;;;;5.17;4.67;;;25.20;99.90;;;;;;5089263;28;20432;-93
2022/08/31 07:59:42;;;;;;;5.37;4.57;;;25.30;99.90;;;;;;5086224;28;20490;-93
2022/08/31 08:02:08;;;;;;;4.80;3.53;;;25.50;99.90;;;;;;5089856;28;20444;-94
2022/08/31 08:04:39;;;;;;;5.47;4.50;;;25.50;99.90;;;;;;5088696;28;20196;-93
2022/08/31 08:07:06;;;;;;;7.00;4.17;;;25.60;99.90;;;;;;5076321;28;20191;-93
2022/08/31 08:09:32;;;;;;;4.27;3.47;;;25.70;99.90;;;;;;5076723;28;20448;-93
2022/08/31 08:12:05;;;;;;;6.27;3.67;;;25.80;99.90;;;;;;5094886;28;20431;-93
2022/08/31 08:14:33;;;;;;;4.93;4.10;;;25.90;99.90;;;;;;5100373;28;20448;-94
2022/08/31 08:16:59;;;;;;;4.80;4.00;;;26.00;99.90;;;;;;5076035;28;20539;-92
2022/08/31 08:19:26;;;;;;;4.03;3.63;;;26.00;99.90;;;;;;5076317;28;20468;-93
2022/08/31 08:21:51;;;;;;;4.47;3.57;;;26.10;99.90;;;;;;5075755;28;20808;-93
2022/08/31 08:24:17;;;;;;;4.90;3.80;;;26.20;99.90;;;;;;5091049;28;21099;-94
2022/08/31 08:26:49;;;;;;;4.10;3.50;;;26.20;99.90;;;;;;5095371;28;20186;-93
2022/08/31 08:29:16;;;;;;;5.53;3.80;;;26.30;99.90;;;;;;5100785;28;20203;-92
2022/08/31 08:31:42;;;;;;;5.77;4.03;;;26.40;99.90;;;;;;5080731;28;20501;-94
2022/08/31 08:34:08;;;;;;;4.53;3.53;;;26.50;99.90;;;;;;5096920;28;20960;-93
2022/08/31 08:36:39;;;;;;;4.10;3.80;;;26.60;99.90;;;;;;5099151;28;20851;-93
2022/08/31 08:39:08;;;;;;;5.10;4.20;;;26.70;99.90;;;;;;5077465;28;20552;-93
2022/08/31 08:41:36;;;;;;;4.00;3.60;;;26.90;99.90;;;;;;5077903;28;20969;-94
2022/08/31 08:44:07;;;;;;;5.70;3.60;;;27.00;99.90;;;;;;5078008;28;20440;-93
2022/08/31 08:46:40;;;;;;;8.23;3.93;;;27.20;99.90;;;;;;5105248;28;20437;-93
2022/08/31 08:49:14;;;;;;;4.20;3.50;;;27.80;99.90;;;;;;5104225;28;20492;-94
2022/08/31 08:51:41;;;;;;;6.33;3.60;;;28.60;99.90;;;;;;5085653;28;20444;-93
2022/08/31 08:54:12;;;;;;;3.60;3.33;;;29.50;99.90;;;;;;5086244;28;20437;-92
2022/08/31 08:56:47;;;;;;;5.27;3.57;;;30.40;99.90;;;;;;5085693;28;20932;-93
2022/08/31 08:59:15;;;;;;;4.60;2.77;;;31.00;99.90;;;;;;5074303;28;20487;-92
2022/08/31 09:01:45;;;;;;;4.13;3.70;;;31.30;99.90;;;;;;5077754;28;21038;-92
2022/08/31 09:04:58;;;;;;;4.30;3.40;;;31.20;99.90;;;;;;5076565;28;20448;-93
2022/08/31 09:07:43;;;;;;;6.70;3.73;;;31.10;99.90;;;;;;5074917;28;20442;-93
2022/08/31 09:10:17;;;;;;;4.07;3.60;;;30.80;99.90;;;;;;5077210;28;20484;-93
2022/08/31 09:13:30;;;;;;;3.80;3.40;;;30.50;99.90;;;;;;5076165;28;20874;-93
2022/08/31 09:16:16;;;;;;;6.03;3.40;;;30.30;99.90;;;;;;5033633;28;20577;-92
2022/08/31 09:18:55;;;;;;;4.07;2.93;;;30.10;99.90;;;;;;5014331;28;21000;-94
2022/08/31 09:21:35;;;;;;;5.80;3.20;;;29.90;99.90;;;;;;5062633;28;20532;-92
2022/08/31 09:24:07;;;;;;;3.97;2.90;;;29.80;99.90;;;;;;5074871;28;20968;-93
2022/08/31 09:26:57;;;;;;;4.17;3.10;;;29.70;99.90;;;;;;5074994;28;20509;-93
2022/08/31 09:29:29;;;;;;;3.53;2.80;;;29.70;99.90;;;;;;5097154;28;20438;-93
2022/08/31 09:32:06;;;;;;;3.23;2.93;;;29.60;99.00;;;;;;5088318;28;20445;-93
2022/08/31 09:34:39;;;;;;;3.40;3.10;;;29.50;97.90;;;;;;5089276;28;20510;-93
2022/08/31 09:37:13;;;;;;;6.00;3.00;;;29.50;97.60;;;;;;5074745;28;20820;-93
2022/08/31 09:39:39;;;;;;;4.40;3.50;;;29.40;99.20;;;;;;5072039;28;20491;-93
2022/08/31 09:42:26;;;;;;;4.23;3.30;;;29.40;99.90;;;;;;5069549;28;20796;-93
2022/08/31 09:44:51;;;;;;;5.00;3.80;;;29.40;99.90;;;;;;5071801;28;20551;-92
2022/08/31 09:47:54;;;;;;;61.07;38.33;;;29.40;98.10;;;;;;5075282;28;20456;-93
2022/08/31 09:50:31;;;;;;;7.37;4.37;;;29.30;99.90;;;;;;5083828;28;20228;-93
2022/08/31 09:56:15;;;;;;;3.77;2.87;;;29.20;98.20;;;;;;5096185;28;21132;-92
2022/08/31 09:58:47;;;;;;;3.93;3.17;;;29.20;99.90;;;;;;5074009;28;20473;-92
2022/08/31 10:01:21;;;;;;;3.33;3.03;;;29.20;99.90;;;;;;5076615;28;20509;-93
2022/08/31 10:03:47;;;;;;;4.80;2.60;;;29.00;99.90;;;;;;5074021;28;20429;-93
2022/08/31 10:06:29;;;;;;;4.40;3.10;;;29.00;99.90;;;;;;5078339;28;20455;-93
2022/08/31 10:08:59;;;;;;;4.50;2.83;;;29.00;99.90;;;;;;5080975;28;20427;-93
2022/08/31 10:11:29;;;;;;;4.43;2.90;;;29.00;99.90;;;;;;5087978;28;20543;-94
2022/08/31 10:14:14;;;;;;;3.60;3.27;;;29.00;99.90;;;;;;5075784;28;20500;-90
2022/08/31 10:16:48;;;;;;;3.57;3.27;;;29.00;99.90;;;;;;5075046;28;20471;-93
2022/08/31 10:19:19;;;;;;;5.63;3.03;;;29.00;99.90;;;;;;5071293;28;20526;-92
2022/08/31 10:22:20;;;;;;;3.43;3.07;;;29.00;98.60;;;;;;5073625;28;20810;-93
2022/08/31 10:25:03;;;;;;;2.23;2.13;;;29.10;99.90;;;;;;5072262;28;20535;-93
2022/08/31 10:27:37;;;;;;;3.10;2.60;;;29.10;99.90;;;;;;5071025;28;20948;-93
2022/08/31 10:30:15;;;;;;;2.80;2.60;;;29.10;99.90;;;;;;5074264;28;20444;-93
2022/08/31 10:32:52;;;;;;;3.10;2.80;;;29.10;99.90;;;;;;5075511;28;20464;-93
2022/08/31 10:35:53;;;;;;;3.20;2.30;;;29.10;95.30;;;;;;5088551;28;20471;-93
2022/08/31 10:38:36;;;;;;;2.07;1.93;;;29.20;95.50;;;;;;5073589;28;20555;-93
2022/08/31 10:41:17;;;;;;;2.60;2.40;;;29.20;94.70;;;;;;5068216;28;20518;-93
2022/08/31 10:44:15;;;;;;;3.00;2.80;;;29.30;94.20;;;;;;5072300;28;20444;-93
2022/08/31 10:46:41;;;;;;;3.87;2.83;;;29.30;94.60;;;;;;5077795;28;20465;-92
2022/08/31 10:49:07;;;;;;;2.50;2.30;;;29.30;95.60;;;;;;5075121;28;20974;-93
2022/08/31 10:51:35;;;;;;;3.70;2.50;;;29.40;94.20;;;;;;5075728;28;20179;-92
2022/08/31 10:54:35;;;;;;;4.67;3.00;;;29.40;96.60;;;;;;5093146;28;20971;-92
2022/08/31 10:57:04;;;;;;;3.03;2.77;;;29.40;93.70;;;;;;5054274;28;20449;-93
2022/08/31 10:59:45;;;;;;;3.30;2.77;;;29.40;94.40;;;;;;5088693;28;20479;-93
2022/08/31 11:02:44;;;;;;;4.00;2.90;;;29.50;95.10;;;;;;5062193;28;20454;-93
2022/08/31 11:09:44;;;;;;;;;;;;;;;;;;;;;
2022/08/31 11:24:35;;;;;;;3.30;3.00;;;29.70;96.60;;;;;;5043223;28;21031;-93
2022/08/31 11:27:13;;;;;;;5.23;3.80;;;29.70;93.90;;;;;;5033692;28;20444;-94
2022/08/31 11:29:55;;;;;;;4.00;3.47;;;29.80;93.40;;;;;;5032786;28;20461;-94
2022/08/31 11:32:46;;;;;;;5.63;3.43;;;29.90;93.50;;;;;;5038803;28;20433;-93
2022/08/31 11:35:14;;;;;;;4.90;3.07;;;29.90;93.00;;;;;;5034435;28;20458;-93
2022/08/31 11:37:53;;;;;;;4.03;3.43;;;29.80;93.00;;;;;;5042621;28;20429;-93
2022/08/31 11:40:49;;;;;;;6.47;3.47;;;29.90;93.90;;;;;;5035920;28;20474;-93
2022/08/31 11:43:51;;;;;;;9.23;3.43;;;29.90;93.20;;;;;;5032849;28;20530;-92
2022/08/31 11:46:26;;;;;;;3.90;3.50;;;29.90;93.30;;;;;;5024923;28;20445;-93
2022/08/31 11:48:57;;;;;;;3.10;2.80;;;29.90;94.60;;;;;;5020106;28;20471;-92
2022/08/31 11:51:31;;;;;;;5.77;3.37;;;29.90;93.70;;;;;;5026635;28;20453;-92
2022/08/31 11:54:12;;;;;;;4.07;3.23;;;30.00;93.70;;;;;;5034934;28;20426;-92
2022/08/31 11:56:43;;;;;;;6.23;3.43;;;30.00;94.80;;;;;;5025047;28;20519;-92
2022/08/31 11:59:32;;;;;;;3.73;3.43;;;30.00;95.40;;;;;;5031755;28;20491;-94
2022/08/31 12:02:18;;;;;;;3.90;3.60;;;29.90;95.90;;;;;;5023214;28;20955;-93
2022/08/31 12:04:56;;;;;;;9.93;3.60;;;29.90;94.80;;;;;;5032440;28;20467;-91
2022/08/31 12:07:34;;;;;;;6.10;3.70;;;29.90;93.40;;;;;;5028960;28;20453;-93
2022/08/31 12:10:06;;;;;;;4.60;3.90;;;29.90;93.80;;;;;;5030659;28;20817;-93
2022/08/31 12:12:38;;;;;;;4.80;4.27;;;29.80;94.40;;;;;;5047137;28;20448;-93
2022/08/31 12:15:16;;;;;;;3.90;3.50;;;29.80;93.80;;;;;;5027968;28;20465;-93
2022/08/31 12:18:13;;;;;;;3.87;3.13;;;29.80;93.90;;;;;;5020374;28;20469;-92
2022/08/31 12:24:07;;;;;;;7.80;3.57;;;29.80;95.70;;;;;;5063239;28;20507;-92
2022/08/31 12:26:58;;;;;;;5.13;3.50;;;29.70;95.50;;;;;;5032442;28;20481;-94
2022/08/31 12:29:33;;;;;;;4.90;3.47;;;29.70;95.70;;;;;;5037797;28;20461;-91
2022/08/31 12:32:07;;;;;;;5.13;3.60;;;29.70;94.60;;;;;;5036005;28;20446;-94
2022/08/31 12:34:59;;;;;;;3.87;3.50;;;29.60;93.60;;;;;;5037010;28;20463;-93
2022/08/31 12:37:33;;;;;;;5.33;3.30;;;29.70;93.80;;;;;;5018375;28;20512;-93
2022/08/31 12:40:19;;;;;;;3.83;3.50;;;29.60;94.70;;;;;;5031385;28;20472;-93
2022/08/31 12:42:52;;;;;;;4.53;4.13;;;29.60;94.80;;;;;;5054925;28;20461;-93
2022/08/31 12:46:05;;;;;;;4.17;3.77;;;29.60;95.40;;;;;;5050681;28;20463;-93
2022/08/31 12:48:43;;;;;;;4.20;3.67;;;29.50;95.40;;;;;;5030175;28;20463;-92
2022/08/31 12:51:28;;;;;;;4.00;3.57;;;29.50;95.60;;;;;;5030601;28;20453;-93
2022/08/31 12:54:46;;;;;;;5.30;3.73;;;29.40;95.30;;;;;;5027999;28;20544;-93
2022/08/31 12:57:55;;;;;;;3.27;3.07;;;29.40;95.70;;;;;;4986926;28;20440;-93
2022/08/31 13:00:30;;;;;;;2.97;2.77;;;29.40;96.30;;;;;;5025356;28;20474;-93
2022/08/31 13:03:19;;;;;;;4.30;3.53;;;29.40;96.80;;;;;;5032868;28;20481;-93
2022/08/31 13:06:13;;;;;;;4.33;3.93;;;29.30;96.00;;;;;;5026310;28;20457;-93
2022/08/31 13:08:48;;;;;;;5.10;3.60;;;29.40;95.10;;;;;;5023818;28;20471;-93
2022/08/31 13:11:34;;;;;;;5.17;3.70;;;29.40;96.10;;;;;;5038047;28;20884;-93
2022/08/31 13:14:14;;;;;;;4.20;3.80;;;29.40;96.60;;;;;;5050172;28;20437;-93
2022/08/31 13:16:42;;;;;;;4.00;3.60;;;29.40;95.80;;;;;;5039387;28;20455;-93
2022/08/31 13:19:22;;;;;;;3.87;3.57;;;29.40;95.50;;;;;;5037423;28;20455;-92
2022/08/31 13:21:58;;;;;;;4.60;3.57;;;29.40;97.10;;;;;;5048491;28;20443;-94
2022/08/31 13:24:32;;;;;;;5.20;3.50;;;29.50;96.70;;;;;;5045478;28;20626;-93
2022/08/31 13:27:24;;;;;;;3.43;3.13;;;29.50;97.20;;;;;;5038714;28;20471;-93
2022/08/31 13:29:52;;;;;;;3.70;3.40;;;29.40;96.90;;;;;;5051212;28;21019;-93
2022/08/31 13:32:32;;;;;;;3.90;3.43;;;29.50;94.60;;;;;;5038403;28;20969;-93
2022/08/31 13:35:09;;;;;;;5.00;3.40;;;29.50;94.70;;;;;;5059675;28;20447;-93
2022/08/31 13:37:43;;;;;;;3.37;3.07;;;29.60;95.00;;;;;;5052901;28;20500;-93
2022/08/31 13:40:15;;;;;;;4.83;3.43;;;29.60;94.50;;;;;;5048832;28;20488;-93
2022/08/31 13:42:45;;;;;;;5.63;3.47;;;29.60;95.70;;;;;;5042768;28;20950;-93